createdAt,value
2022-08-26T00:00:18.010Z,98237.03
2022-08-26T00:02:44.199Z,98236.25
2022-08-26T00:05:10.380Z,98235.66
2022-08-26T00:07:36.787Z,98231.59
2022-08-26T00:10:03.541Z,98241.09
2022-08-26T00:12:36.167Z,98239.16
2022-08-26T00:15:04.010Z,98237.50
2022-08-26T00:17:30.182Z,98237.22
2022-08-26T00:19:56.381Z,98233.84
2022-08-26T00:22:22.602Z,98230.31
2022-08-26T00:24:49.031Z,98237.66
2022-08-26T00:27:15.177Z,98238.41
2022-08-26T00:29:41.912Z,98238.13
2022-08-26T00:32:08.137Z,98231.34
2022-08-26T00:34:34.360Z,98228.34
2022-08-26T00:37:00.526Z,98223.75
2022-08-26T00:39:26.696Z,98231.59
2022-08-26T00:41:52.844Z,98232.06
2022-08-26T00:44:19.014Z,98235.56
2022-08-26T00:46:46.947Z,98232.84
2022-08-26T00:49:13.354Z,98233.19
2022-08-26T00:51:39.591Z,98235.91
2022-08-26T00:54:05.727Z,98233.31
2022-08-26T00:56:32.173Z,98232.34
2022-08-26T00:58:58.314Z,98236.09
2022-08-26T01:01:24.472Z,98234.41
2022-08-26T01:03:50.687Z,98233.63
2022-08-26T01:06:18.218Z,98230.63
2022-08-26T01:08:44.349Z,98233.34
2022-08-26T01:11:10.492Z,98236.00
2022-08-26T01:13:36.653Z,98231.38
2022-08-26T01:16:02.847Z,98223.75
2022-08-26T01:18:29.007Z,98229.94
2022-08-26T01:20:57.734Z,98225.59
2022-08-26T01:23:24.060Z,98223.91
2022-08-26T01:25:50.197Z,98232.03
2022-08-26T01:28:17.122Z,98232.28
2022-08-26T01:30:43.764Z,98231.09
2022-08-26T01:33:10.111Z,98231.84
2022-08-26T01:35:37.553Z,98226.13
2022-08-26T01:38:03.700Z,98223.44
2022-08-26T01:40:30.124Z,98224.38
2022-08-26T01:42:56.322Z,98234.94
2022-08-26T01:45:22.444Z,98228.41
2022-08-26T01:47:48.575Z,98237.00
2022-08-26T01:50:15.824Z,98240.72
2022-08-26T01:52:54.632Z,98236.59
2022-08-26T01:55:32.281Z,98241.22
2022-08-26T01:57:59.688Z,98240.31
2022-08-26T02:00:26.004Z,98238.09
2022-08-26T02:02:53.413Z,98233.16
2022-08-26T02:05:19.568Z,98240.88
2022-08-26T02:07:45.733Z,98238.22
2022-08-26T02:10:12.045Z,98236.94
2022-08-26T02:12:38.181Z,98252.06
2022-08-26T02:15:05.602Z,98262.25
2022-08-26T02:17:31.989Z,98270.25
2022-08-26T02:19:58.113Z,98266.22
2022-08-26T02:22:24.697Z,98273.22
2022-08-26T02:24:50.967Z,98270.81
2022-08-26T02:27:17.156Z,98260.09
2022-08-26T02:29:43.670Z,98279.44
2022-08-26T02:32:09.819Z,98269.72
2022-08-26T02:34:35.984Z,98265.00
2022-08-26T02:37:03.207Z,98265.50
2022-08-26T02:39:29.674Z,98276.75
2022-08-26T02:41:55.801Z,98260.47
2022-08-26T02:44:22.189Z,98258.34
2022-08-26T02:46:48.406Z,98271.22
2022-08-26T02:49:15.060Z,98262.16
2022-08-26T02:51:41.204Z,98256.19
2022-08-26T02:54:09.266Z,98263.84
2022-08-26T02:56:35.728Z,98259.28
2022-08-26T02:59:02.163Z,98257.59
2022-08-26T03:01:28.339Z,98264.13
2022-08-26T03:03:54.741Z,98258.22
2022-08-26T03:06:21.104Z,98254.72
2022-08-26T03:08:47.240Z,98265.63
2022-08-26T03:11:13.376Z,98272.03
2022-08-26T03:13:39.856Z,98262.75
2022-08-26T03:16:06.012Z,98257.69
2022-08-26T03:18:32.188Z,98260.31
2022-08-26T03:20:58.394Z,98268.25
2022-08-26T03:23:24.539Z,98267.59
2022-08-26T03:25:50.680Z,98269.63
2022-08-26T03:28:18.129Z,98260.56
2022-08-26T03:30:45.876Z,98264.56
2022-08-26T03:33:12.052Z,98273.47
2022-08-26T03:35:38.225Z,98262.09
2022-08-26T03:38:05.684Z,98268.72
2022-08-26T03:40:31.918Z,98271.63
2022-08-26T03:42:58.104Z,98267.34
2022-08-26T03:45:25.886Z,98256.56
2022-08-26T03:47:52.414Z,98260.13
2022-08-26T03:50:22.842Z,98253.59
2022-08-26T03:52:50.447Z,98270.09
2022-08-26T03:55:16.580Z,98267.94
2022-08-26T03:57:43.837Z,98273.69
2022-08-26T04:00:10.214Z,98272.34
2022-08-26T04:02:36.467Z,98265.41
2022-08-26T04:05:02.749Z,98266.56
2022-08-26T04:07:29.689Z,98275.06
2022-08-26T04:09:58.242Z,98267.28
2022-08-26T04:12:24.385Z,98273.25
2022-08-26T04:14:50.675Z,98266.25
2022-08-26T04:17:19.939Z,98278.03
2022-08-26T04:19:51.175Z,98273.09
2022-08-26T04:22:24.140Z,98271.28
2022-08-26T04:24:51.244Z,98273.22
2022-08-26T04:27:17.798Z,98272.63
2022-08-26T04:29:43.935Z,98279.91
2022-08-26T04:32:10.074Z,98267.59
2022-08-26T04:34:36.362Z,98273.44
2022-08-26T04:37:02.507Z,98282.75
2022-08-26T04:39:28.658Z,98271.47
2022-08-26T04:41:54.841Z,98280.31
2022-08-26T04:44:20.986Z,98271.47
2022-08-26T04:46:47.768Z,98282.19
2022-08-26T04:49:15.206Z,98287.91
2022-08-26T04:51:41.373Z,98277.69
2022-08-26T04:54:10.097Z,98293.19
2022-08-26T04:56:37.565Z,98284.44
2022-08-26T04:59:03.781Z,98292.25
2022-08-26T05:01:33.456Z,98302.34
2022-08-26T05:04:08.002Z,98303.06
2022-08-26T05:06:36.878Z,98302.16
2022-08-26T05:09:03.360Z,98306.50
2022-08-26T05:11:29.507Z,98296.31
2022-08-26T05:13:58.153Z,98306.03
2022-08-26T05:16:27.902Z,98301.25
2022-08-26T05:18:54.102Z,98303.25
2022-08-26T05:21:20.250Z,98314.34
2022-08-26T05:23:46.398Z,98305.25
2022-08-26T05:26:12.556Z,98305.59
2022-08-26T05:28:42.676Z,98299.28
2022-08-26T05:31:08.857Z,98306.06
2022-08-26T05:33:35.059Z,98308.66
2022-08-26T05:36:01.193Z,98309.44
2022-08-26T05:38:30.316Z,98308.41
2022-08-26T05:40:57.062Z,98309.34
2022-08-26T05:43:23.200Z,98310.97
2022-08-26T05:45:49.336Z,98311.56
2022-08-26T05:48:16.198Z,98321.97
2022-08-26T05:50:42.396Z,98317.88
2022-08-26T05:53:09.344Z,98324.44
2022-08-26T05:55:35.819Z,98325.47
2022-08-26T05:58:05.195Z,98332.25
2022-08-26T06:00:31.340Z,98329.25
2022-08-26T06:02:57.577Z,98333.66
2022-08-26T06:05:23.809Z,98331.34
2022-08-26T06:07:50.000Z,98338.72
2022-08-26T06:10:31.532Z,98338.13
2022-08-26T06:12:58.070Z,98348.06
2022-08-26T06:15:24.238Z,98345.50
2022-08-26T06:17:50.375Z,98345.13
2022-08-26T06:20:16.497Z,98337.41
2022-08-26T06:22:43.489Z,98344.53
2022-08-26T06:25:09.890Z,98342.22
2022-08-26T06:27:36.232Z,98350.00
2022-08-26T06:30:02.626Z,98346.72
2022-08-26T06:32:28.853Z,98350.59
2022-08-26T06:34:55.538Z,98357.66
2022-08-26T06:37:21.691Z,98355.94
2022-08-26T06:39:48.157Z,98355.94
2022-08-26T06:42:17.379Z,98352.91
2022-08-26T06:44:44.705Z,98360.72
2022-08-26T06:47:11.031Z,98357.13
2022-08-26T06:49:37.166Z,98352.06
2022-08-26T06:52:03.409Z,98361.97
2022-08-26T06:54:29.556Z,98370.16
2022-08-26T06:56:55.724Z,98359.72
2022-08-26T06:59:22.337Z,98358.84
2022-08-26T07:01:48.497Z,98362.34
2022-08-26T07:04:15.982Z,98365.25
2022-08-26T07:06:48.402Z,98366.50
2022-08-26T07:09:14.554Z,98366.22
2022-08-26T07:11:40.777Z,98369.13
2022-08-26T07:14:07.150Z,98365.06
2022-08-26T07:16:33.279Z,98367.00
2022-08-26T07:18:59.425Z,98373.94
2022-08-26T07:21:27.361Z,98373.00
2022-08-26T07:23:57.500Z,98385.06
2022-08-26T07:26:26.272Z,98378.53
2022-08-26T07:28:54.742Z,98380.75
2022-08-26T07:31:21.003Z,98382.31
2022-08-26T07:33:47.162Z,98387.44
2022-08-26T07:36:13.309Z,98392.91
2022-08-26T07:38:39.493Z,98388.38
2022-08-26T07:41:05.634Z,98379.88
2022-08-26T07:43:31.794Z,98395.00
2022-08-26T07:45:57.955Z,98400.13
2022-08-26T07:48:24.096Z,98395.47
2022-08-26T07:50:50.793Z,98392.63
2022-08-26T07:53:19.410Z,98392.31
2022-08-26T07:55:45.616Z,98391.59
2022-08-26T07:58:11.946Z,98397.06
2022-08-26T08:00:38.076Z,98389.53
2022-08-26T08:03:04.225Z,98403.13
2022-08-26T08:05:33.521Z,98399.38
2022-08-26T08:08:26.339Z,98408.66
2022-08-26T08:10:48.926Z,98407.03
2022-08-26T08:13:15.138Z,98407.13
2022-08-26T08:15:41.321Z,98405.84
2022-08-26T08:18:15.723Z,98397.81
2022-08-26T08:20:44.837Z,98409.59
2022-08-26T08:23:20.586Z,98402.78
2022-08-26T08:25:47.810Z,98413.19
2022-08-26T08:28:13.992Z,98408.59
2022-08-26T08:30:40.763Z,98415.78
2022-08-26T08:33:06.917Z,98414.31
2022-08-26T08:35:33.806Z,98414.47
2022-08-26T08:38:00.194Z,98418.41
2022-08-26T08:40:30.416Z,98413.47
2022-08-26T08:42:56.592Z,98421.75
2022-08-26T08:45:22.776Z,98419.69
2022-08-26T08:47:49.001Z,98412.41
2022-08-26T08:50:15.160Z,98414.75
2022-08-26T08:52:41.328Z,98413.28
2022-08-26T08:55:10.979Z,98412.47
2022-08-26T08:57:38.841Z,98403.56
2022-08-26T09:00:05.257Z,98408.81
2022-08-26T09:02:31.412Z,98411.00
2022-08-26T09:04:57.584Z,98400.47
2022-08-26T09:07:23.772Z,98407.66
2022-08-26T09:09:50.756Z,98402.97
2022-08-26T09:12:18.365Z,98411.13
2022-08-26T09:14:46.080Z,98412.31
2022-08-26T09:17:12.323Z,98400.53
2022-08-26T09:19:38.513Z,98413.97
2022-08-26T09:22:09.342Z,98411.31
2022-08-26T09:24:39.630Z,98419.28
2022-08-26T09:27:08.383Z,98410.00
2022-08-26T09:29:37.685Z,98408.28
2022-08-26T09:32:03.862Z,98422.94
2022-08-26T09:34:30.011Z,98427.16
2022-08-26T09:36:56.155Z,98422.81
2022-08-26T09:39:22.298Z,98420.09
2022-08-26T09:41:48.465Z,98431.88
2022-08-26T09:44:15.607Z,98421.53
2022-08-26T09:46:41.924Z,98421.88
2022-08-26T09:49:08.402Z,98419.81
2022-08-26T09:51:36.570Z,98437.59
2022-08-26T09:54:03.613Z,98419.03
2022-08-26T09:56:31.976Z,98410.88
2022-08-26T09:58:58.193Z,98418.16
2022-08-26T10:01:24.435Z,98426.81
2022-08-26T10:03:50.673Z,98421.56
2022-08-26T10:06:17.422Z,98411.59
2022-08-26T10:08:44.183Z,98415.81
2022-08-26T10:11:13.872Z,98406.66
2022-08-26T10:13:40.019Z,98402.13
2022-08-26T10:16:06.975Z,98404.41
2022-08-26T10:18:37.018Z,98397.84
2022-08-26T10:21:03.895Z,98396.28
2022-08-26T10:23:30.061Z,98399.34
2022-08-26T10:25:59.189Z,98399.50
2022-08-26T10:28:25.521Z,98410.25
2022-08-26T10:30:51.692Z,98406.50
2022-08-26T10:33:18.237Z,98405.22
2022-08-26T10:35:44.460Z,98398.94
2022-08-26T10:38:10.844Z,98392.41
2022-08-26T10:40:37.196Z,98389.97
2022-08-26T10:43:08.492Z,98388.53
2022-08-26T10:45:37.159Z,98385.44
2022-08-26T10:48:03.511Z,98393.28
2022-08-26T10:50:29.651Z,98398.91
2022-08-26T10:52:55.802Z,98392.13
2022-08-26T10:55:21.948Z,98391.00
2022-08-26T10:57:48.793Z,98394.00
2022-08-26T11:00:15.066Z,98391.06
2022-08-26T11:02:41.232Z,98396.00
2022-08-26T11:05:13.359Z,98397.94
2022-08-26T11:07:39.493Z,98409.66
2022-08-26T11:10:05.667Z,98408.06
2022-08-26T11:12:32.742Z,98409.03
2022-08-26T11:14:59.417Z,98402.44
2022-08-26T11:17:25.605Z,98409.22
2022-08-26T11:20:00.724Z,98418.00
2022-08-26T11:22:28.225Z,98413.53
2022-08-26T11:24:54.394Z,98407.94
2022-08-26T11:27:20.543Z,98414.38
2022-08-26T11:29:46.996Z,98407.41
2022-08-26T11:32:13.861Z,98405.84
2022-08-26T11:34:39.996Z,98409.09
2022-08-26T11:37:06.156Z,98412.91
2022-08-26T11:39:36.537Z,98403.16
2022-08-26T11:42:03.177Z,98406.41
2022-08-26T11:44:29.328Z,98399.06
2022-08-26T11:46:55.484Z,98402.66
2022-08-26T11:49:21.623Z,98396.28
2022-08-26T11:51:48.512Z,98385.69
2022-08-26T11:54:15.815Z,98393.78
2022-08-26T11:56:42.187Z,98406.34
2022-08-26T11:59:08.391Z,98404.84
2022-08-26T12:01:34.693Z,98409.78
2022-08-26T12:04:01.112Z,98406.00
2022-08-26T12:08:58.494Z,98398.19
2022-08-26T12:11:24.629Z,98400.31
2022-08-26T12:13:50.794Z,98392.06
2022-08-26T12:16:17.797Z,98383.06
2022-08-26T12:18:44.901Z,98386.38
2022-08-26T12:21:11.223Z,98383.38
2022-08-26T12:23:37.390Z,98388.44
2022-08-26T12:26:03.532Z,98386.63
2022-08-26T12:28:30.058Z,98388.63
2022-08-26T12:30:56.217Z,98388.84
2022-08-26T12:33:23.368Z,98392.22
2022-08-26T12:35:54.208Z,98381.44
2022-08-26T12:38:22.613Z,98378.00
2022-08-26T12:40:48.745Z,98390.00
2022-08-26T12:43:14.950Z,98382.13
2022-08-26T12:45:41.153Z,98387.69
2022-08-26T12:48:07.367Z,98389.25
2022-08-26T12:50:33.611Z,98396.97
2022-08-26T12:52:59.757Z,98393.34
2022-08-26T12:55:25.901Z,98399.16
2022-08-26T12:57:52.062Z,98389.66
2022-08-26T13:00:18.192Z,98395.81
2022-08-26T13:02:45.051Z,98373.88
2022-08-26T13:05:11.219Z,98379.16
2022-08-26T13:07:37.375Z,98382.44
2022-08-26T13:10:03.534Z,98381.34
2022-08-26T13:12:29.708Z,98378.41
2022-08-26T13:14:55.851Z,98384.94
2022-08-26T13:17:21.995Z,98382.97
2022-08-26T13:19:48.149Z,98371.91
2022-08-26T13:22:14.284Z,98393.72
2022-08-26T13:24:40.432Z,98383.97
2022-08-26T13:27:06.582Z,98381.97
2022-08-26T13:29:32.717Z,98386.94
2022-08-26T13:31:58.855Z,98383.06
2022-08-26T13:34:25.012Z,98371.84
2022-08-26T13:36:51.145Z,98367.00
2022-08-26T13:39:17.286Z,98370.72
2022-08-26T13:41:43.817Z,98356.41
2022-08-26T13:44:09.967Z,98369.16
2022-08-26T13:46:36.243Z,98369.22
2022-08-26T13:49:02.494Z,98374.94
2022-08-26T13:51:28.646Z,98373.34
2022-08-26T13:53:54.795Z,98375.53
2022-08-26T13:56:20.952Z,98372.53
2022-08-26T13:58:47.096Z,98382.44
2022-08-26T14:01:13.455Z,98384.34
2022-08-26T14:03:39.735Z,98394.03
2022-08-26T14:06:05.942Z,98391.28
2022-08-26T14:08:32.078Z,98383.38
2022-08-26T14:10:58.231Z,98370.97
2022-08-26T14:13:24.361Z,98375.88
2022-08-26T14:15:50.548Z,98381.72
2022-08-26T14:18:16.903Z,98375.75
2022-08-26T14:20:43.126Z,98377.19
2022-08-26T14:23:13.963Z,98380.22
2022-08-26T14:25:40.644Z,98377.31
2022-08-26T14:28:06.781Z,98376.84
2022-08-26T14:30:32.915Z,98378.63
2022-08-26T14:32:59.065Z,98380.56
2022-08-26T14:35:25.199Z,98381.72
2022-08-26T14:37:51.326Z,98389.72
2022-08-26T14:40:17.561Z,98382.66
2022-08-26T14:42:46.731Z,98388.91
2022-08-26T14:45:19.050Z,98383.31
2022-08-26T14:47:45.212Z,98374.94
2022-08-26T14:50:11.341Z,98359.47
2022-08-26T14:52:39.530Z,98367.63
2022-08-26T14:55:05.845Z,98366.13
2022-08-26T14:57:31.981Z,98362.47
2022-08-26T14:59:58.768Z,98368.59
2022-08-26T15:02:32.570Z,98371.03
2022-08-26T15:04:59.805Z,98384.50
2022-08-26T15:07:25.933Z,98381.22
2022-08-26T15:09:52.062Z,98366.78
2022-08-26T15:12:18.209Z,98372.47
2022-08-26T15:14:44.329Z,98367.47
2022-08-26T15:17:10.460Z,98364.69
2022-08-26T15:19:36.611Z,98361.50
2022-08-26T15:22:02.745Z,98368.38
2022-08-26T15:24:28.907Z,98370.22
2022-08-26T15:26:55.079Z,98362.53
2022-08-26T15:29:21.224Z,98364.81
2022-08-26T15:31:47.399Z,98367.72
2022-08-26T15:34:16.690Z,98370.31
2022-08-26T15:36:43.290Z,98377.13
2022-08-26T15:39:09.461Z,98371.75
2022-08-26T15:41:35.675Z,98364.38
2022-08-26T15:44:01.881Z,98365.00
2022-08-26T15:46:29.667Z,98358.41
2022-08-26T15:48:56.495Z,98355.25
2022-08-26T15:51:22.684Z,98362.59
2022-08-26T15:53:48.862Z,98351.34
2022-08-26T15:56:15.117Z,98372.19
2022-08-26T15:58:41.256Z,98359.75
2022-08-26T16:01:09.994Z,98355.41
2022-08-26T16:03:36.542Z,98360.78
2022-08-26T16:06:02.776Z,98375.47
2022-08-26T16:08:28.987Z,98361.72
2022-08-26T16:11:03.421Z,98360.31
2022-08-26T16:13:29.799Z,98354.75
2022-08-26T16:16:06.051Z,98352.41
2022-08-26T16:18:32.209Z,98356.38
2022-08-26T16:21:13.638Z,98358.50
2022-08-26T16:23:40.258Z,98363.91
2022-08-26T16:26:10.491Z,98370.41
2022-08-26T16:28:36.938Z,98372.91
2022-08-26T16:31:04.502Z,98375.56
2022-08-26T16:33:30.712Z,98379.38
2022-08-26T16:35:56.871Z,98384.84
2022-08-26T16:38:23.042Z,98377.66
2022-08-26T16:40:49.441Z,98374.03
2022-08-26T16:43:15.581Z,98380.38
2022-08-26T16:45:41.756Z,98391.81
2022-08-26T16:48:08.365Z,98386.03
2022-08-26T16:50:34.629Z,98391.63
2022-08-26T16:53:01.176Z,98383.97
2022-08-26T16:55:27.375Z,98387.16
2022-08-26T16:57:53.526Z,98402.03
2022-08-26T17:00:19.690Z,98401.63
2022-08-26T17:02:45.950Z,98397.25
2022-08-26T17:05:12.126Z,98401.44
2022-08-26T17:07:38.299Z,98409.34
2022-08-26T17:10:04.460Z,98402.47
2022-08-26T17:12:30.623Z,98400.88
2022-08-26T17:14:56.839Z,98411.28
2022-08-26T17:17:22.982Z,98409.91
2022-08-26T17:19:49.129Z,98410.38
2022-08-26T17:22:15.292Z,98421.19
2022-08-26T17:24:41.424Z,98424.06
2022-08-26T17:27:07.645Z,98411.47
2022-08-26T17:29:33.820Z,98417.75
2022-08-26T17:31:59.954Z,98420.38
2022-08-26T17:34:26.095Z,98423.47
2022-08-26T17:36:52.268Z,98423.34
2022-08-26T17:39:18.397Z,98414.31
2022-08-26T17:41:44.532Z,98419.38
2022-08-26T17:44:10.683Z,98420.69
2022-08-26T17:46:38.453Z,98416.09
2022-08-26T17:49:04.780Z,98424.13
2022-08-26T17:51:31.013Z,98423.84
2022-08-26T17:53:57.147Z,98424.94
2022-08-26T17:56:23.296Z,98432.22
2022-08-26T17:58:51.218Z,98419.34
2022-08-26T18:01:17.896Z,98425.44
2022-08-26T18:03:44.139Z,98433.91
2022-08-26T18:06:11.164Z,98421.03
2022-08-26T18:08:37.315Z,98428.47
2022-08-26T18:11:03.508Z,98430.13
2022-08-26T18:13:29.663Z,98420.47
2022-08-26T18:15:55.852Z,98421.38
2022-08-26T18:18:22.037Z,98419.25
2022-08-26T18:20:51.884Z,98415.75
2022-08-26T18:23:22.980Z,98419.59
2022-08-26T18:25:52.916Z,98418.72
2022-08-26T18:28:19.037Z,98416.09
2022-08-26T18:30:45.244Z,98420.38
2022-08-26T18:33:11.748Z,98420.47
2022-08-26T18:35:38.046Z,98412.50
2022-08-26T18:38:10.848Z,98412.63
2022-08-26T18:40:37.644Z,98412.00
2022-08-26T18:43:03.781Z,98411.41
2022-08-26T18:45:29.924Z,98410.97
2022-08-26T18:47:56.068Z,98415.06
2022-08-26T18:50:22.212Z,98410.66
2022-08-26T18:52:48.349Z,98415.03
2022-08-26T18:55:14.778Z,98421.03
2022-08-26T18:57:40.919Z,98424.91
2022-08-26T19:00:07.060Z,98427.25
2022-08-26T19:02:33.332Z,98426.16
2022-08-26T19:04:59.557Z,98422.00
2022-08-26T19:07:25.690Z,98422.56
2022-08-26T19:09:54.117Z,98415.97
2022-08-26T19:12:20.390Z,98418.56
2022-08-26T19:14:46.550Z,98424.28
2022-08-26T19:17:12.853Z,98436.06
2022-08-26T19:19:39.062Z,98438.16
2022-08-26T19:22:05.206Z,98428.91
2022-08-26T19:24:33.760Z,98434.84
2022-08-26T19:26:59.884Z,98434.84
2022-08-26T19:29:26.036Z,98437.81
2022-08-26T19:31:52.190Z,98437.47
2022-08-26T19:34:20.837Z,98445.44
2022-08-26T19:36:47.238Z,98447.97
2022-08-26T19:39:13.431Z,98437.41
2022-08-26T19:41:39.587Z,98436.41
2022-08-26T19:44:05.725Z,98438.78
2022-08-26T19:46:31.986Z,98433.91
2022-08-26T19:48:58.219Z,98445.19
2022-08-26T19:51:24.352Z,98439.41
2022-08-26T19:53:50.485Z,98447.19
2022-08-26T19:56:16.632Z,98459.41
2022-08-26T19:58:42.766Z,98449.94
2022-08-26T20:01:09.293Z,98450.44
2022-08-26T20:03:35.508Z,98449.94
2022-08-26T20:06:01.653Z,98459.22
2022-08-26T20:08:27.806Z,98451.00
2022-08-26T20:10:55.869Z,98453.59
2022-08-26T20:13:21.994Z,98451.94
2022-08-26T20:15:48.147Z,98453.03
2022-08-26T20:18:14.314Z,98453.03
2022-08-26T20:20:40.469Z,98455.59
2022-08-26T20:23:06.638Z,98459.69
2022-08-26T20:25:32.770Z,98465.69
2022-08-26T20:27:58.903Z,98463.00
2022-08-26T20:30:25.048Z,98453.94
2022-08-26T20:32:51.183Z,98458.31
2022-08-26T20:35:17.320Z,98458.41
2022-08-26T20:37:43.482Z,98464.47
2022-08-26T20:40:09.633Z,98464.59
2022-08-26T20:42:35.824Z,98471.19
2022-08-26T20:45:01.974Z,98469.19
2022-08-26T20:47:28.116Z,98471.06
2022-08-26T20:49:55.344Z,98477.75
2022-08-26T20:52:21.490Z,98460.66
2022-08-26T20:54:47.634Z,98475.38
2022-08-26T20:57:13.778Z,98467.91
2022-08-26T20:59:39.934Z,98471.19
2022-08-26T21:02:06.070Z,98466.97
2022-08-26T21:04:32.253Z,98476.19
2022-08-26T21:06:58.451Z,98468.91
2022-08-26T21:09:24.595Z,98473.97
2022-08-26T21:11:50.749Z,98476.66
2022-08-26T21:14:17.370Z,98473.72
2022-08-26T21:16:43.727Z,98478.41
2022-08-26T21:19:09.946Z,98479.47
2022-08-26T21:21:36.082Z,98482.59
2022-08-26T21:24:02.225Z,98486.97
2022-08-26T21:26:28.357Z,98479.81
2022-08-26T21:28:54.535Z,98495.00
2022-08-26T21:31:20.713Z,98490.31
2022-08-26T21:33:46.909Z,98490.69
2022-08-26T21:36:13.070Z,98500.75
2022-08-26T21:38:39.218Z,98505.06
2022-08-26T21:41:05.357Z,98496.31
2022-08-26T21:43:35.200Z,98503.22
2022-08-26T21:46:01.951Z,98495.78
2022-08-26T21:48:34.531Z,98499.97
2022-08-26T21:51:00.892Z,98499.06
2022-08-26T21:53:27.030Z,98491.38
2022-08-26T21:55:53.170Z,98493.13
2022-08-26T21:58:19.340Z,98485.59
2022-08-26T22:00:45.499Z,98502.06
2022-08-26T22:03:11.696Z,98481.34
2022-08-26T22:05:37.899Z,98487.94
2022-08-26T22:08:04.079Z,98491.97
2022-08-26T22:10:30.257Z,98477.03
2022-08-26T22:12:56.416Z,98483.72
2022-08-26T22:15:22.545Z,98479.91
2022-08-26T22:17:48.686Z,98479.19
2022-08-26T22:20:16.550Z,98480.56
2022-08-26T22:22:43.012Z,98488.53
2022-08-26T22:25:09.236Z,98490.63
2022-08-26T22:27:35.389Z,98495.66
2022-08-26T22:30:06.684Z,98493.09
2022-08-26T22:32:37.834Z,98492.63
2022-08-26T22:35:03.984Z,98492.34
2022-08-26T22:37:50.113Z,98503.88
2022-08-26T22:40:16.292Z,98498.94
2022-08-26T22:42:42.469Z,98497.22
2022-08-26T22:45:21.666Z,98490.50
2022-08-26T22:47:47.876Z,98492.00
2022-08-26T22:50:14.045Z,98495.75
2022-08-26T22:52:40.202Z,98493.13
2022-08-26T22:55:06.362Z,98492.34
2022-08-26T22:57:32.490Z,98491.19
2022-08-26T22:59:58.642Z,98493.16
2022-08-26T23:02:24.784Z,98496.41
2022-08-26T23:04:50.937Z,98479.47
2022-08-26T23:07:17.382Z,98497.56
2022-08-26T23:09:43.519Z,98495.09
2022-08-26T23:12:09.658Z,98492.34
2022-08-26T23:14:35.820Z,98487.28
2022-08-26T23:17:02.024Z,98493.78
2022-08-26T23:19:28.205Z,98489.78
2022-08-26T23:21:54.688Z,98492.09
2022-08-26T23:24:20.829Z,98495.81
2022-08-26T23:26:46.990Z,98493.69
2022-08-26T23:29:13.149Z,98489.81
2022-08-26T23:31:39.354Z,98486.81
2022-08-26T23:34:05.505Z,98489.06
2022-08-26T23:36:31.680Z,98481.06
2022-08-26T23:39:01.158Z,98469.63
2022-08-26T23:41:27.298Z,98475.81
2022-08-26T23:43:53.518Z,98475.25
2022-08-26T23:46:19.658Z,98479.56
2022-08-26T23:48:45.800Z,98474.50
2022-08-26T23:51:11.976Z,98473.66
2022-08-26T23:53:38.100Z,98474.25
2022-08-26T23:56:04.222Z,98475.19
2022-08-26T23:58:30.373Z,98478.59
